createdAt,value
2023-02-27T00:04:20.561Z,56.08
2023-02-27T00:10:28.103Z,55.87
2023-02-27T00:16:55.310Z,55.88
2023-02-27T00:45:46.460Z,54.70
2023-02-27T00:52:24.651Z,54.23
2023-02-27T01:20:30.439Z,54.24
2023-02-27T01:41:37.490Z,54.23
2023-02-27T01:47:54.944Z,54.20
2023-02-27T01:54:55.396Z,54.01
2023-02-27T02:00:17.234Z,53.32
2023-02-27T02:06:25.842Z,52.91
2023-02-27T02:12:09.255Z,52.72
2023-02-27T02:18:49.150Z,53.10
2023-02-27T02:25:18.241Z,52.57
2023-02-27T02:32:18.446Z,52.53
2023-02-27T02:38:52.013Z,51.94
2023-02-27T02:53:37.608Z,51.85
2023-02-27T03:16:17.907Z,51.69
2023-02-27T03:21:03.759Z,51.31
2023-02-27T03:34:34.154Z,49.45
2023-02-27T03:55:04.581Z,49.04
2023-02-27T04:02:38.984Z,47.55
2023-02-27T04:16:04.919Z,47.52
2023-02-27T04:22:23.097Z,46.96
2023-02-27T04:28:35.457Z,45.94
2023-02-27T04:35:18.268Z,46.00
2023-02-27T04:41:38.715Z,45.77
2023-02-27T04:47:55.751Z,46.01
2023-02-27T04:54:12.325Z,46.20
2023-02-27T04:59:53.883Z,45.72
2023-02-27T05:06:13.113Z,45.40
2023-02-27T05:12:56.354Z,45.37
2023-02-27T05:19:06.049Z,45.90
2023-02-27T05:25:15.558Z,45.82
2023-02-27T05:38:34.842Z,46.48
2023-02-27T05:57:50.540Z,47.71
2023-02-27T06:04:28.878Z,48.07
2023-02-27T06:10:18.598Z,48.74
2023-02-27T06:16:34.217Z,49.41
2023-02-27T06:22:28.810Z,50.26
2023-02-27T06:28:31.728Z,51.11
2023-02-27T06:34:10.407Z,51.79
2023-02-27T07:46:04.714Z,53.69
2023-02-27T07:52:05.551Z,53.60
2023-02-27T07:58:12.502Z,53.19
2023-02-27T08:04:37.256Z,53.35
2023-02-27T08:09:53.274Z,53.40
2023-02-27T08:15:53.454Z,52.57
2023-02-27T08:21:34.428Z,52.34
2023-02-27T08:27:55.406Z,51.43
2023-02-27T08:41:38.181Z,50.95
2023-02-27T08:48:18.363Z,50.37
2023-02-27T08:54:24.435Z,49.18
2023-02-27T09:02:05.255Z,48.87
2023-02-27T09:08:08.942Z,48.69
2023-02-27T09:13:59.432Z,49.69
2023-02-27T09:20:22.369Z,49.00
2023-02-27T09:25:49.455Z,47.88
2023-02-27T09:31:47.112Z,48.18
2023-02-27T09:38:01.222Z,47.77
2023-02-27T10:02:59.725Z,47.20
2023-02-27T10:09:11.820Z,47.22
2023-02-27T10:15:10.098Z,47.47
2023-02-27T10:21:36.548Z,47.77
2023-02-27T10:27:02.712Z,48.12
2023-02-27T10:32:41.536Z,48.30
2023-02-27T10:38:26.692Z,49.30
2023-02-27T10:44:28.479Z,51.03
2023-02-27T10:51:14.406Z,52.83
2023-02-27T11:02:28.556Z,53.19
2023-02-27T11:08:53.021Z,53.52
2023-02-27T11:14:55.480Z,54.18
2023-02-27T11:21:12.500Z,53.53
2023-02-27T11:27:21.117Z,52.68
2023-02-27T11:33:33.215Z,52.57
2023-02-27T11:39:57.940Z,52.02
2023-02-27T11:46:43.614Z,51.78
2023-02-27T11:52:51.054Z,51.20
2023-02-27T12:02:39.412Z,50.47
2023-02-27T12:08:42.566Z,49.97
2023-02-27T12:14:40.870Z,49.14
2023-02-27T12:20:40.324Z,49.36
2023-02-27T12:27:57.372Z,50.77
2023-02-27T12:33:46.450Z,51.71
2023-02-27T12:46:54.831Z,53.55
2023-02-27T12:52:49.857Z,52.84
2023-02-27T12:58:45.601Z,53.84
2023-02-27T13:05:41.660Z,53.93
2023-02-27T13:12:05.330Z,54.51
2023-02-27T13:18:36.521Z,54.54
2023-02-27T13:32:47.707Z,54.61
2023-02-27T13:39:26.421Z,54.03
2023-02-27T13:46:34.640Z,53.46
2023-02-27T13:58:40.277Z,51.90
2023-02-27T14:05:28.680Z,51.72
2023-02-27T14:18:16.024Z,49.33
2023-02-27T14:25:10.779Z,48.95
2023-02-27T14:31:09.931Z,48.19
2023-02-27T14:37:42.593Z,47.57
2023-02-27T14:44:10.937Z,47.88
2023-02-27T14:50:53.427Z,48.18
2023-02-27T15:04:03.968Z,49.39
2023-02-27T15:10:33.841Z,49.73
2023-02-27T15:17:00.800Z,50.18
2023-02-27T15:23:25.829Z,51.27
2023-02-27T15:29:23.114Z,51.71
2023-02-27T15:35:53.198Z,51.26
2023-02-27T15:42:00.804Z,50.95
2023-02-27T15:47:56.387Z,51.60
2023-02-27T15:54:14.098Z,52.28
2023-02-27T16:00:28.377Z,52.49
2023-02-27T16:06:51.860Z,52.88
2023-02-27T16:13:12.642Z,53.13
2023-02-27T16:20:07.923Z,53.29
2023-02-27T17:01:38.205Z,52.32
2023-02-27T17:07:07.719Z,52.52
2023-02-27T17:19:29.083Z,53.00
2023-02-27T17:26:42.012Z,52.57
2023-02-27T17:49:45.347Z,52.93
2023-02-27T17:55:56.801Z,52.65
2023-02-27T18:02:14.415Z,52.81
2023-02-27T18:08:38.565Z,52.83
2023-02-27T18:15:05.021Z,52.66
2023-02-27T18:21:17.265Z,52.78
2023-02-27T18:27:41.573Z,52.96
2023-02-27T18:33:58.765Z,52.88
2023-02-27T18:40:04.142Z,53.23
2023-02-27T18:46:21.067Z,52.71
2023-02-27T18:52:11.648Z,53.12
2023-02-27T18:58:07.681Z,52.51
2023-02-27T19:04:22.706Z,52.39
2023-02-27T19:10:47.493Z,51.80
2023-02-27T19:16:54.667Z,51.81
2023-02-27T19:22:30.978Z,51.92
2023-02-27T19:29:25.709Z,51.89
2023-02-27T19:56:37.273Z,51.91
2023-02-27T20:02:24.255Z,51.68
2023-02-27T20:08:52.021Z,51.91
2023-02-27T20:16:47.772Z,52.43
2023-02-27T20:21:06.437Z,50.44
2023-02-27T20:27:17.716Z,50.38
2023-02-27T20:33:41.765Z,49.75
2023-02-27T20:39:31.004Z,51.21
2023-02-27T20:45:06.909Z,49.96
2023-02-27T20:59:55.933Z,50.89
2023-02-27T21:05:18.102Z,50.37
2023-02-27T21:11:32.407Z,50.25
2023-02-27T21:17:50.088Z,50.46
2023-02-27T21:23:58.382Z,50.66
2023-02-27T21:30:15.055Z,50.35
2023-02-27T21:36:05.886Z,50.44
2023-02-27T21:42:37.326Z,50.85
2023-02-27T21:48:51.832Z,51.29
2023-02-27T21:54:36.495Z,51.39
2023-02-27T22:00:41.031Z,51.51
2023-02-27T22:18:37.729Z,51.07
2023-02-27T22:20:43.031Z,50.99
2023-02-27T22:27:07.391Z,50.96
2023-02-27T22:33:15.217Z,51.03
2023-02-27T22:39:25.140Z,50.97
2023-02-27T22:45:31.082Z,51.20
2023-02-27T22:51:52.063Z,51.28
2023-02-27T23:02:34.002Z,51.13
2023-02-27T23:10:34.351Z,50.68
2023-02-27T23:16:16.559Z,50.78
2023-02-27T23:22:26.464Z,50.20
